createdAt,value
2023-09-03T00:02:22.270Z,76.13
2023-09-03T00:04:49.071Z,76.86
2023-09-03T00:07:15.797Z,77.00
2023-09-03T00:09:42.638Z,76.42
2023-09-03T00:12:09.363Z,75.79
2023-09-03T00:14:36.097Z,75.34
2023-09-03T00:17:02.859Z,75.12
2023-09-03T00:19:29.541Z,76.26
2023-09-03T00:21:56.269Z,74.94
2023-09-03T00:24:22.973Z,74.52
2023-09-03T00:26:50.297Z,74.36
2023-09-03T00:29:16.981Z,75.32
2023-09-03T00:31:43.736Z,73.79
2023-09-03T00:34:10.463Z,74.74
2023-09-03T00:36:37.206Z,74.21
2023-09-03T00:39:04.132Z,76.23
2023-09-03T00:41:30.865Z,77.30
2023-09-03T00:43:57.609Z,77.75
2023-09-03T00:46:25.128Z,78.27
2023-09-03T00:48:51.910Z,78.72
2023-09-03T00:51:18.953Z,77.86
2023-09-03T00:53:49.565Z,79.05
2023-09-03T00:56:17.158Z,79.81
2023-09-03T00:58:44.387Z,80.19
2023-09-03T01:01:11.801Z,79.91
2023-09-03T01:03:38.705Z,80.76
2023-09-03T01:06:06.822Z,81.00
2023-09-03T01:08:34.027Z,80.70
2023-09-03T01:11:42.497Z,80.90
2023-09-03T01:14:37.263Z,80.73
2023-09-03T01:17:06.918Z,81.21
2023-09-03T01:19:39.404Z,81.66
2023-09-03T01:22:50.664Z,81.70
2023-09-03T01:25:35.395Z,81.97
2023-09-03T01:28:31.398Z,81.45
2023-09-03T01:31:01.472Z,81.22
2023-09-03T01:33:29.799Z,81.67
2023-09-03T01:35:58.580Z,82.16
2023-09-03T01:38:26.042Z,82.19
2023-09-03T01:40:54.980Z,82.09
2023-09-03T01:43:21.833Z,82.03
2023-09-03T01:45:54.444Z,82.33
2023-09-03T01:48:34.210Z,82.20
2023-09-03T01:51:22.244Z,82.85
2023-09-03T01:53:48.907Z,81.73
2023-09-03T01:56:18.872Z,80.99
2023-09-03T01:58:51.898Z,80.29
2023-09-03T02:01:21.963Z,80.45
2023-09-03T02:03:51.318Z,80.81
2023-09-03T02:06:18.066Z,81.24
2023-09-03T02:08:44.760Z,82.11
2023-09-03T02:11:11.492Z,81.66
2023-09-03T02:13:38.263Z,82.20
2023-09-03T02:16:05.082Z,82.10
2023-09-03T02:18:31.790Z,82.14
2023-09-03T02:20:58.802Z,82.03
2023-09-03T02:23:25.490Z,82.11
2023-09-03T02:26:10.206Z,81.36
2023-09-03T02:28:37.791Z,80.96
2023-09-03T02:31:04.436Z,81.83
2023-09-03T02:33:31.680Z,82.00
2023-09-03T02:35:58.451Z,81.64
2023-09-03T02:38:25.308Z,81.69
2023-09-03T02:40:51.979Z,82.65
2023-09-03T02:43:18.679Z,82.70
2023-09-03T02:45:45.403Z,82.34
2023-09-03T02:48:13.006Z,82.41
2023-09-03T02:50:39.582Z,82.37
2023-09-03T02:53:07.107Z,82.70
2023-09-03T02:55:34.346Z,82.04
2023-09-03T02:58:03.997Z,82.21
2023-09-03T03:00:30.778Z,81.50
2023-09-03T03:02:57.546Z,80.54
2023-09-03T03:05:24.410Z,81.10
2023-09-03T03:07:51.168Z,81.33
2023-09-03T03:10:18.103Z,81.22
2023-09-03T03:12:46.006Z,82.43
2023-09-03T03:15:12.852Z,83.16
2023-09-03T03:17:39.601Z,82.12
2023-09-03T03:20:09.035Z,82.36
2023-09-03T03:22:36.039Z,82.64
2023-09-03T03:25:03.478Z,82.76
2023-09-03T03:27:30.651Z,82.94
2023-09-03T03:29:57.458Z,81.84
2023-09-03T03:32:24.183Z,81.08
2023-09-03T03:34:51.045Z,79.79
2023-09-03T03:37:23.256Z,81.37
2023-09-03T03:39:51.446Z,81.77
2023-09-03T03:42:18.224Z,81.88
2023-09-03T03:44:44.992Z,82.42
2023-09-03T03:47:11.763Z,82.43
2023-09-03T03:49:38.483Z,82.07
2023-09-03T03:52:05.478Z,80.30
2023-09-03T03:54:32.479Z,79.90
2023-09-03T03:56:59.185Z,78.63
2023-09-03T03:59:25.928Z,78.16
2023-09-03T04:01:52.694Z,77.75
2023-09-03T04:04:20.784Z,77.91
2023-09-03T04:06:47.603Z,77.60
2023-09-03T04:09:14.352Z,77.11
2023-09-03T04:11:41.257Z,76.64
2023-09-03T04:14:07.982Z,76.35
2023-09-03T04:16:34.697Z,76.26
2023-09-03T04:19:01.516Z,75.90
2023-09-03T04:21:28.355Z,75.47
2023-09-03T04:23:55.069Z,75.33
2023-09-03T04:26:21.812Z,74.92
2023-09-03T04:28:48.489Z,74.85
2023-09-03T04:31:15.264Z,74.65
2023-09-03T04:33:42.091Z,74.90
2023-09-03T04:36:09.862Z,74.73
2023-09-03T04:38:36.750Z,74.49
2023-09-03T04:41:08.303Z,73.99
2023-09-03T04:43:37.908Z,73.69
2023-09-03T04:46:04.644Z,73.30
2023-09-03T04:48:31.660Z,72.70
2023-09-03T04:51:04.508Z,72.43
2023-09-03T04:53:34.194Z,71.46
2023-09-03T04:56:03.306Z,71.71
2023-09-03T04:58:30.107Z,70.95
2023-09-03T05:00:56.812Z,71.06
2023-09-03T05:03:26.368Z,71.29
2023-09-03T05:05:53.205Z,70.87
2023-09-03T05:08:20.154Z,70.28
2023-09-03T05:10:47.133Z,70.58
2023-09-03T05:13:13.884Z,70.04
2023-09-03T05:15:41.808Z,69.32
2023-09-03T05:18:08.518Z,69.55
2023-09-03T05:20:38.743Z,68.24
2023-09-03T05:23:05.483Z,67.66
2023-09-03T05:25:32.165Z,67.35
2023-09-03T05:27:58.822Z,67.07
2023-09-03T05:30:27.217Z,65.72
2023-09-03T05:32:53.954Z,65.41
2023-09-03T05:35:20.715Z,64.26
2023-09-03T05:37:47.415Z,63.85
2023-09-03T05:40:14.266Z,64.59
2023-09-03T05:42:40.970Z,61.99
2023-09-03T05:45:07.994Z,60.96
2023-09-03T05:47:34.744Z,60.46
2023-09-03T05:50:04.279Z,60.92
2023-09-03T05:52:31.023Z,59.51
2023-09-03T05:54:57.842Z,59.01
2023-09-03T05:57:24.975Z,58.66
2023-09-03T05:59:52.499Z,58.57
2023-09-03T06:02:19.828Z,54.61
2023-09-03T06:04:46.674Z,54.19
2023-09-03T06:07:14.420Z,53.07
2023-09-03T06:09:41.488Z,52.60
2023-09-03T06:12:08.881Z,50.65
2023-09-03T06:14:37.062Z,50.60
2023-09-03T06:17:05.612Z,50.23
2023-09-03T06:19:32.349Z,50.72
2023-09-03T06:21:59.040Z,51.04
2023-09-03T06:24:27.368Z,50.82
2023-09-03T06:26:55.502Z,50.36
2023-09-03T06:29:22.211Z,48.04
2023-09-03T06:31:49.027Z,45.27
2023-09-03T06:34:15.776Z,44.98
2023-09-03T06:36:44.748Z,44.98
2023-09-03T06:39:11.842Z,44.72
2023-09-03T06:41:38.572Z,45.18
2023-09-03T06:44:05.604Z,46.69
2023-09-03T06:46:32.834Z,46.02
2023-09-03T06:48:59.540Z,45.19
2023-09-03T06:51:26.918Z,44.68
2023-09-03T06:53:53.459Z,44.98
2023-09-03T06:56:20.133Z,45.12
2023-09-03T06:58:47.232Z,42.68
2023-09-03T07:01:14.145Z,44.07
2023-09-03T07:03:40.943Z,43.49
2023-09-03T07:06:07.705Z,43.34
2023-09-03T07:08:35.150Z,42.63
2023-09-03T07:11:02.050Z,43.40
2023-09-03T07:13:28.933Z,41.81
2023-09-03T07:15:55.708Z,41.34
2023-09-03T07:18:22.575Z,39.26
2023-09-03T07:20:49.398Z,40.99
2023-09-03T07:23:16.414Z,41.07
2023-09-03T07:25:43.310Z,38.79
2023-09-03T07:28:10.193Z,38.65
2023-09-03T07:30:36.976Z,38.21
2023-09-03T07:33:03.943Z,39.57
2023-09-03T07:35:33.141Z,38.77
2023-09-03T07:37:59.998Z,38.48
2023-09-03T07:40:26.775Z,37.37
2023-09-03T07:42:53.520Z,36.88
2023-09-03T07:45:20.302Z,35.78
2023-09-03T07:47:47.151Z,35.50
2023-09-03T07:50:16.467Z,35.53
2023-09-03T07:52:43.254Z,35.18
2023-09-03T07:55:10.322Z,36.06
2023-09-03T07:57:37.011Z,34.52
2023-09-03T08:00:04.672Z,34.56
2023-09-03T08:02:31.407Z,33.92
2023-09-03T08:04:58.230Z,33.90
2023-09-03T08:07:25.810Z,33.17
2023-09-03T08:09:53.209Z,32.98
2023-09-03T08:12:19.904Z,32.24
2023-09-03T08:14:49.929Z,31.83
2023-09-03T08:17:16.832Z,32.59
2023-09-03T08:19:43.537Z,31.42
2023-09-03T08:22:10.270Z,32.45
2023-09-03T08:24:36.954Z,32.32
2023-09-03T08:27:03.802Z,32.21
2023-09-03T08:29:30.731Z,31.81
2023-09-03T08:31:57.539Z,31.31
2023-09-03T08:34:24.327Z,31.68
2023-09-03T08:36:51.002Z,30.61
2023-09-03T08:39:17.756Z,32.19
2023-09-03T08:41:47.037Z,30.77
2023-09-03T08:44:28.270Z,31.18
2023-09-03T08:47:00.869Z,29.51
2023-09-03T08:49:33.275Z,29.39
2023-09-03T08:52:00.323Z,30.15
2023-09-03T08:54:28.237Z,28.66
2023-09-03T08:56:55.881Z,29.56
2023-09-03T08:59:22.575Z,29.75
2023-09-03T09:01:55.581Z,29.50
2023-09-03T09:04:24.078Z,29.97
2023-09-03T09:06:51.425Z,30.38
2023-09-03T09:09:18.701Z,29.64
2023-09-03T09:11:55.631Z,29.17
2023-09-03T09:14:43.196Z,30.95
2023-09-03T09:17:14.352Z,32.56
2023-09-03T09:19:41.290Z,30.93
2023-09-03T09:22:11.661Z,29.91
2023-09-03T09:24:45.593Z,30.00
2023-09-03T09:27:20.795Z,29.23
2023-09-03T09:30:01.037Z,30.59
2023-09-03T09:32:27.747Z,31.18
2023-09-03T09:34:57.645Z,30.32
2023-09-03T09:37:24.386Z,29.71
2023-09-03T09:39:51.425Z,30.38
2023-09-03T09:42:21.293Z,30.21
2023-09-03T09:44:54.465Z,30.27
2023-09-03T09:47:22.651Z,31.26
2023-09-03T09:49:50.936Z,30.25
2023-09-03T09:52:18.866Z,35.94
2023-09-03T09:54:50.632Z,39.63
2023-09-03T09:57:24.448Z,39.56
2023-09-03T09:59:57.148Z,38.71
2023-09-03T10:02:24.282Z,35.04
2023-09-03T10:04:52.760Z,36.39
2023-09-03T10:07:20.056Z,38.38
2023-09-03T10:09:47.197Z,39.05
2023-09-03T10:12:14.998Z,40.85
2023-09-03T10:14:41.997Z,42.21
2023-09-03T10:17:10.844Z,41.91
2023-09-03T10:19:50.599Z,43.12
2023-09-03T10:22:20.296Z,44.19
2023-09-03T10:25:13.939Z,42.06
2023-09-03T10:27:46.697Z,41.92
2023-09-03T10:30:17.217Z,42.92
2023-09-03T10:32:45.377Z,41.85
2023-09-03T10:35:23.089Z,42.59
2023-09-03T10:37:52.938Z,44.35
2023-09-03T10:40:23.699Z,43.85
2023-09-03T10:42:54.383Z,43.49
2023-09-03T10:45:21.719Z,41.64
2023-09-03T10:47:57.735Z,39.40
2023-09-03T10:50:44.110Z,39.96
2023-09-03T10:53:41.166Z,40.04
2023-09-03T10:56:23.264Z,38.04
2023-09-03T10:58:59.756Z,36.54
2023-09-03T11:01:32.693Z,38.47
2023-09-03T11:04:04.014Z,36.90
2023-09-03T11:06:32.689Z,39.74
2023-09-03T11:09:02.405Z,38.88
2023-09-03T11:11:32.036Z,39.96
2023-09-03T11:13:59.084Z,40.00
2023-09-03T11:16:51.430Z,40.50
2023-09-03T11:19:21.148Z,40.46
2023-09-03T11:21:50.629Z,40.78
2023-09-03T11:24:18.222Z,41.24
2023-09-03T11:27:05.336Z,38.47
2023-09-03T11:29:32.110Z,37.88
2023-09-03T11:32:00.869Z,37.14
2023-09-03T11:34:32.195Z,37.37
2023-09-03T11:36:59.086Z,37.52
2023-09-03T11:39:25.888Z,41.10
2023-09-03T11:41:52.797Z,39.16
2023-09-03T11:44:24.729Z,38.44
2023-09-03T11:46:59.017Z,39.27
2023-09-03T11:49:26.070Z,41.36
2023-09-03T11:51:53.723Z,42.17
2023-09-03T11:54:29.040Z,40.99
2023-09-03T11:56:59.846Z,39.86
2023-09-03T11:59:29.119Z,40.77
2023-09-03T12:01:56.307Z,41.56
2023-09-03T12:04:23.405Z,41.79
2023-09-03T12:06:50.226Z,41.54
2023-09-03T12:09:28.055Z,43.98
2023-09-03T12:11:54.806Z,42.23
2023-09-03T12:14:32.715Z,43.50
2023-09-03T12:16:59.502Z,44.58
2023-09-03T12:19:46.623Z,44.47
2023-09-03T12:22:37.581Z,40.17
2023-09-03T12:25:06.561Z,40.82
2023-09-03T12:27:50.215Z,40.98
2023-09-03T12:30:17.624Z,39.49
2023-09-03T12:32:44.366Z,40.45
2023-09-03T12:35:42.198Z,40.56
2023-09-03T12:38:09.215Z,38.54
2023-09-03T12:40:36.007Z,40.44
2023-09-03T12:43:02.832Z,40.55
2023-09-03T12:45:46.255Z,38.58
2023-09-03T12:48:13.003Z,37.23
2023-09-03T12:50:47.140Z,36.32
2023-09-03T12:53:13.956Z,36.67
2023-09-03T12:55:40.743Z,38.51
2023-09-03T12:58:07.440Z,38.40
2023-09-03T13:00:53.560Z,36.50
2023-09-03T13:03:21.117Z,36.53
2023-09-03T13:05:48.207Z,36.93
2023-09-03T13:08:14.996Z,35.97
2023-09-03T13:10:54.248Z,38.20
2023-09-03T13:13:23.697Z,38.84
2023-09-03T13:15:51.108Z,39.43
2023-09-03T13:18:17.867Z,38.69
2023-09-03T13:20:57.429Z,39.99
2023-09-03T13:23:24.601Z,40.26
2023-09-03T13:25:57.568Z,40.00
2023-09-03T13:28:24.364Z,41.79
2023-09-03T13:31:05.228Z,41.94
2023-09-03T13:33:53.832Z,36.78
2023-09-03T13:36:20.616Z,42.40
2023-09-03T13:38:47.488Z,42.87
2023-09-03T13:41:14.161Z,43.53
2023-09-03T13:44:04.989Z,42.17
2023-09-03T13:46:32.827Z,42.34
2023-09-03T13:48:59.669Z,43.19
2023-09-03T13:51:26.351Z,45.73
2023-09-03T13:54:19.484Z,44.79
2023-09-03T13:56:46.219Z,43.30
2023-09-03T13:59:12.942Z,44.10
2023-09-03T14:01:40.058Z,43.91
2023-09-03T14:04:06.895Z,43.98
2023-09-03T14:06:35.710Z,45.11
2023-09-03T14:09:02.551Z,45.54
2023-09-03T14:11:31.387Z,42.95
2023-09-03T14:13:58.290Z,45.32
2023-09-03T14:16:25.049Z,47.71
2023-09-03T14:18:51.912Z,47.92
2023-09-03T14:21:20.616Z,48.55
2023-09-03T14:23:48.978Z,47.55
2023-09-03T14:26:16.689Z,46.89
2023-09-03T14:28:44.281Z,47.52
2023-09-03T14:31:11.358Z,49.66
2023-09-03T14:33:38.470Z,50.02
2023-09-03T14:36:05.495Z,49.78
2023-09-03T14:38:32.172Z,49.21
2023-09-03T14:40:58.948Z,49.47
2023-09-03T14:43:25.650Z,49.13
2023-09-03T14:45:52.405Z,49.13
2023-09-03T14:48:19.126Z,49.17
2023-09-03T14:50:45.905Z,50.25
2023-09-03T14:53:12.738Z,51.88
2023-09-03T14:55:44.159Z,50.85
2023-09-03T14:58:11.407Z,48.71
2023-09-03T15:00:38.142Z,50.34
2023-09-03T15:03:05.285Z,51.73
2023-09-03T15:05:32.215Z,53.09
2023-09-03T15:07:59.008Z,53.01
2023-09-03T15:10:30.399Z,53.45
2023-09-03T15:12:57.485Z,53.35
2023-09-03T15:15:24.276Z,53.90
2023-09-03T15:17:51.034Z,53.84
2023-09-03T15:20:17.937Z,53.91
2023-09-03T15:22:44.687Z,54.17
2023-09-03T15:25:11.518Z,53.81
2023-09-03T15:27:38.247Z,53.94
2023-09-03T15:30:05.618Z,54.66
2023-09-03T15:32:32.253Z,55.40
2023-09-03T15:34:59.070Z,55.00
2023-09-03T15:37:25.827Z,54.51
2023-09-03T15:39:52.542Z,54.23
2023-09-03T15:42:19.298Z,54.47
2023-09-03T15:44:46.142Z,54.22
2023-09-03T15:47:12.816Z,54.99
2023-09-03T15:49:40.522Z,55.84
2023-09-03T15:52:07.631Z,55.84
2023-09-03T15:54:37.256Z,55.95
2023-09-03T15:57:04.577Z,55.46
2023-09-03T15:59:31.204Z,55.15
2023-09-03T16:01:58.382Z,55.39
2023-09-03T16:04:25.072Z,55.62
2023-09-03T16:06:51.889Z,55.71
2023-09-03T16:09:19.471Z,55.99
2023-09-03T16:11:46.246Z,56.02
2023-09-03T16:14:13.031Z,56.28
2023-09-03T16:16:39.853Z,56.18
2023-09-03T16:19:06.564Z,55.80
2023-09-03T16:21:38.493Z,56.29
2023-09-03T16:24:05.594Z,56.92
2023-09-03T16:26:32.328Z,57.33
2023-09-03T16:28:59.098Z,57.57
2023-09-03T16:31:25.876Z,57.89
2023-09-03T16:33:52.581Z,57.95
2023-09-03T16:36:19.314Z,58.37
2023-09-03T16:38:47.390Z,59.29
2023-09-03T16:41:14.142Z,59.65
2023-09-03T16:43:43.615Z,59.76
2023-09-03T16:46:10.805Z,60.12
2023-09-03T16:48:37.644Z,60.90
2023-09-03T16:51:04.389Z,61.06
2023-09-03T16:53:31.142Z,61.34
2023-09-03T16:55:57.852Z,61.83
2023-09-03T16:58:24.630Z,62.23
2023-09-03T17:00:52.964Z,63.74
2023-09-03T17:03:21.103Z,63.98
2023-09-03T17:05:47.987Z,64.08
2023-09-03T17:08:14.759Z,64.47
2023-09-03T17:10:41.520Z,65.69
2023-09-03T17:13:08.297Z,65.76
2023-09-03T17:15:42.218Z,66.19
2023-09-03T17:18:10.508Z,66.27
2023-09-03T17:20:42.464Z,66.19
2023-09-03T17:23:09.626Z,66.58
2023-09-03T17:25:37.009Z,66.95
2023-09-03T17:28:03.752Z,67.42
2023-09-03T17:30:30.559Z,67.89
2023-09-03T17:32:57.544Z,67.33
2023-09-03T17:35:24.343Z,67.61
2023-09-03T17:37:51.056Z,68.81
2023-09-03T17:40:20.286Z,69.93
2023-09-03T17:42:47.384Z,70.62
2023-09-03T17:45:15.672Z,70.73
2023-09-03T17:47:45.458Z,71.00
2023-09-03T17:50:12.433Z,71.73
2023-09-03T17:52:39.248Z,71.07
2023-09-03T17:55:06.626Z,70.71
2023-09-03T17:57:35.083Z,71.40
2023-09-03T18:00:02.543Z,71.62
2023-09-03T18:02:29.461Z,71.66
2023-09-03T18:04:56.357Z,71.32
2023-09-03T18:07:23.188Z,71.01
2023-09-03T18:09:49.900Z,71.26
2023-09-03T18:12:16.758Z,71.35
2023-09-03T18:14:43.528Z,71.24
2023-09-03T18:17:10.348Z,71.16
2023-09-03T18:19:37.115Z,71.10
2023-09-03T18:22:04.670Z,72.07
2023-09-03T18:24:31.732Z,72.85
2023-09-03T18:26:58.505Z,73.02
2023-09-03T18:29:25.296Z,73.41
2023-09-03T18:31:52.028Z,73.19
2023-09-03T18:34:18.749Z,73.69
2023-09-03T18:36:45.910Z,73.46
2023-09-03T18:39:12.981Z,73.87
2023-09-03T18:41:39.731Z,74.79
2023-09-03T18:44:06.681Z,74.74
2023-09-03T18:46:33.553Z,75.41
2023-09-03T18:49:00.352Z,74.76
2023-09-03T18:51:27.066Z,74.92
2023-09-03T18:53:53.865Z,74.20
2023-09-03T18:56:20.626Z,75.02
2023-09-03T18:58:58.646Z,75.26
2023-09-03T19:01:29.704Z,75.06
2023-09-03T19:03:56.454Z,75.47
2023-09-03T19:06:23.215Z,76.03
2023-09-03T19:08:49.903Z,77.19
2023-09-03T19:11:16.694Z,76.94
2023-09-03T19:13:43.465Z,77.39
2023-09-03T19:16:20.855Z,77.61
2023-09-03T19:18:48.688Z,77.80
2023-09-03T19:21:17.243Z,77.61
2023-09-03T19:23:44.781Z,77.34
2023-09-03T19:26:11.601Z,77.14
2023-09-03T19:28:39.462Z,77.15
2023-09-03T19:31:06.349Z,77.56
2023-09-03T19:33:33.545Z,76.60
2023-09-03T19:36:01.918Z,76.01
2023-09-03T19:38:35.152Z,75.61
2023-09-03T19:41:02.683Z,75.95
2023-09-03T19:43:29.492Z,76.32
2023-09-03T19:45:58.145Z,77.26
2023-09-03T19:48:26.825Z,76.47
2023-09-03T19:50:56.813Z,77.16
2023-09-03T19:53:23.966Z,76.77
2023-09-03T19:55:50.873Z,76.47
2023-09-03T19:58:18.094Z,76.06
2023-09-03T20:00:47.582Z,75.91
2023-09-03T20:03:15.493Z,76.00
2023-09-03T20:05:43.316Z,76.86
2023-09-03T20:08:10.218Z,77.39
2023-09-03T20:10:40.015Z,77.17
2023-09-03T20:13:09.019Z,77.36
2023-09-03T20:15:39.055Z,77.32
2023-09-03T20:18:09.902Z,76.77
2023-09-03T20:20:37.905Z,75.98
2023-09-03T20:23:04.924Z,75.87
2023-09-03T20:25:31.609Z,76.02
2023-09-03T20:27:58.336Z,75.65
2023-09-03T20:30:25.129Z,77.14
2023-09-03T20:32:53.291Z,77.71
2023-09-03T20:35:20.448Z,77.63
2023-09-03T20:37:47.558Z,77.61
2023-09-03T20:40:14.487Z,77.27
2023-09-03T20:42:41.435Z,77.15
2023-09-03T20:45:08.771Z,76.94
2023-09-03T20:47:36.683Z,77.19
2023-09-03T20:50:03.614Z,77.20
2023-09-03T20:52:30.415Z,78.76
2023-09-03T20:55:00.351Z,78.25
2023-09-03T20:57:27.090Z,77.85
2023-09-03T20:59:53.777Z,77.86
2023-09-03T21:02:20.552Z,77.91
2023-09-03T21:04:47.683Z,78.70
2023-09-03T21:07:23.525Z,79.25
2023-09-03T21:09:51.307Z,79.02
2023-09-03T21:12:17.984Z,79.13
2023-09-03T21:14:45.322Z,77.94
2023-09-03T21:17:12.093Z,78.28
2023-09-03T21:19:38.852Z,78.58
2023-09-03T21:22:05.581Z,78.18
2023-09-03T21:24:32.299Z,77.93
2023-09-03T21:26:59.026Z,78.43
2023-09-03T21:29:30.690Z,78.68
2023-09-03T21:31:57.405Z,78.91
2023-09-03T21:34:24.524Z,79.95
2023-09-03T21:36:51.234Z,80.61
2023-09-03T21:39:17.949Z,80.63
2023-09-03T21:41:44.841Z,79.71
2023-09-03T21:44:16.678Z,80.10
2023-09-03T21:46:44.247Z,79.44
2023-09-03T21:49:11.219Z,79.15
2023-09-03T21:51:38.103Z,78.51
2023-09-03T21:54:04.865Z,78.29
2023-09-03T21:56:31.672Z,79.02
2023-09-03T21:58:58.436Z,78.85
2023-09-03T22:01:25.141Z,78.75
2023-09-03T22:03:52.010Z,78.54
2023-09-03T22:06:18.802Z,79.70
2023-09-03T22:08:45.933Z,80.37
2023-09-03T22:11:12.786Z,79.38
2023-09-03T22:13:39.694Z,79.63
2023-09-03T22:16:07.495Z,79.03
2023-09-03T22:18:46.341Z,79.30
2023-09-03T22:21:40.861Z,79.41
2023-09-03T22:24:07.746Z,79.24
2023-09-03T22:26:34.512Z,79.30
2023-09-03T22:29:01.160Z,80.21
2023-09-03T22:31:51.590Z,81.76
2023-09-03T22:34:18.314Z,80.69
2023-09-03T22:36:45.431Z,79.81
2023-09-03T22:39:12.465Z,79.54
2023-09-03T22:41:39.252Z,80.60
2023-09-03T22:44:17.410Z,80.78
2023-09-03T22:46:44.116Z,81.81
2023-09-03T22:49:10.802Z,84.48
2023-09-03T22:51:37.556Z,85.94
2023-09-03T22:54:42.956Z,86.28
2023-09-03T22:57:09.757Z,86.16
2023-09-03T22:59:36.812Z,85.55
2023-09-03T23:02:04.741Z,85.20
2023-09-03T23:04:31.566Z,85.36
2023-09-03T23:06:58.330Z,85.05
2023-09-03T23:09:28.233Z,84.75
2023-09-03T23:11:55.411Z,84.63
2023-09-03T23:14:22.212Z,84.17
2023-09-03T23:16:49.945Z,84.17
2023-09-03T23:19:17.389Z,84.21
2023-09-03T23:21:47.475Z,84.05
2023-09-03T23:24:17.717Z,84.11
2023-09-03T23:26:44.463Z,84.08
2023-09-03T23:29:11.529Z,84.59
2023-09-03T23:31:39.039Z,84.53
2023-09-03T23:34:05.911Z,84.70
2023-09-03T23:36:32.643Z,84.59
2023-09-03T23:38:59.404Z,84.46
2023-09-03T23:41:26.256Z,84.24
2023-09-03T23:43:53.019Z,83.77
2023-09-03T23:46:19.767Z,83.59
2023-09-03T23:48:46.499Z,83.58
2023-09-03T23:51:13.245Z,83.35
2023-09-03T23:53:42.333Z,83.27
2023-09-03T23:56:09.000Z,83.00
2023-09-03T23:58:35.742Z,83.57
